sensor_id;sensor_type;location;lat;lon;timestamp;P1;durP1;ratioP1;P2;durP2;ratioP2
9924;SDS011;5001;51.674;7.868;2022-12-16T00:02:06;70.87;;;36.17;;
9924;SDS011;5001;51.674;7.868;2022-12-16T00:04:33;65.47;;;33.03;;
9924;SDS011;5001;51.674;7.868;2022-12-16T00:07:00;70.03;;;33.80;;
9924;SDS011;5001;51.674;7.868;2022-12-16T00:09:27;65.67;;;33.13;;
9924;SDS011;5001;51.674;7.868;2022-12-16T00:11:54;66.77;;;31.67;;
9924;SDS011;5001;51.674;7.868;2022-12-16T00:14:21;72.30;;;31.80;;
9924;SDS011;5001;51.674;7.868;2022-12-16T00:16:48;61.33;;;31.57;;
9924;SDS011;5001;51.674;7.868;2022-12-16T00:19:15;55.90;;;31.30;;
9924;SDS011;5001;51.674;7.868;2022-12-16T00:21:42;68.67;;;32.90;;
9924;SDS011;5001;51.674;7.868;2022-12-16T00:24:09;55.37;;;30.73;;
9924;SDS011;5001;51.674;7.868;2022-12-16T00:26:36;61.17;;;30.03;;
9924;SDS011;5001;51.674;7.868;2022-12-16T00:29:04;51.77;;;30.00;;
9924;SDS011;5001;51.674;7.868;2022-12-16T00:31:31;52.03;;;29.07;;
9924;SDS011;5001;51.674;7.868;2022-12-16T00:33:58;56.30;;;30.53;;
9924;SDS011;5001;51.674;7.868;2022-12-16T00:36:25;46.80;;;27.20;;
9924;SDS011;5001;51.674;7.868;2022-12-16T00:38:52;52.33;;;27.27;;
9924;SDS011;5001;51.674;7.868;2022-12-16T00:41:19;50.80;;;28.60;;
9924;SDS011;5001;51.674;7.868;2022-12-16T00:43:46;47.80;;;26.90;;
9924;SDS011;5001;51.674;7.868;2022-12-16T00:46:13;47.83;;;25.63;;
9924;SDS011;5001;51.674;7.868;2022-12-16T00:48:40;48.50;;;26.00;;
9924;SDS011;5001;51.674;7.868;2022-12-16T00:51:07;46.47;;;24.77;;
9924;SDS011;5001;51.674;7.868;2022-12-16T00:53:34;46.53;;;24.13;;
9924;SDS011;5001;51.674;7.868;2022-12-16T00:56:06;38.73;;;23.13;;
9924;SDS011;5001;51.674;7.868;2022-12-16T00:58:34;44.27;;;24.10;;
9924;SDS011;5001;51.674;7.868;2022-12-16T01:01:02;42.93;;;22.73;;
9924;SDS011;5001;51.674;7.868;2022-12-16T01:03:30;45.60;;;24.23;;
9924;SDS011;5001;51.674;7.868;2022-12-16T01:05:57;44.73;;;24.10;;
9924;SDS011;5001;51.674;7.868;2022-12-16T01:08:24;47.30;;;26.40;;
9924;SDS011;5001;51.674;7.868;2022-12-16T01:10:52;58.50;;;28.97;;
9924;SDS011;5001;51.674;7.868;2022-12-16T01:13:21;55.20;;;28.80;;
9924;SDS011;5001;51.674;7.868;2022-12-16T01:15:49;49.87;;;27.20;;
9924;SDS011;5001;51.674;7.868;2022-12-16T01:18:17;50.97;;;28.50;;
9924;SDS011;5001;51.674;7.868;2022-12-16T01:20:44;49.77;;;27.20;;
9924;SDS011;5001;51.674;7.868;2022-12-16T01:23:11;51.93;;;27.77;;
9924;SDS011;5001;51.674;7.868;2022-12-16T01:25:38;58.83;;;29.60;;
9924;SDS011;5001;51.674;7.868;2022-12-16T01:28:05;51.10;;;28.70;;
9924;SDS011;5001;51.674;7.868;2022-12-16T01:30:32;57.20;;;28.60;;
9924;SDS011;5001;51.674;7.868;2022-12-16T01:32:59;56.43;;;28.67;;
9924;SDS011;5001;51.674;7.868;2022-12-16T01:35:26;48.37;;;27.07;;
9924;SDS011;5001;51.674;7.868;2022-12-16T01:38:12;46.10;;;24.23;;
9924;SDS011;5001;51.674;7.868;2022-12-16T01:40:40;41.93;;;24.73;;
9924;SDS011;5001;51.674;7.868;2022-12-16T01:43:09;40.97;;;23.33;;
9924;SDS011;5001;51.674;7.868;2022-12-16T01:45:38;44.10;;;23.77;;
9924;SDS011;5001;51.674;7.868;2022-12-16T01:50:55;56.80;;;29.47;;
9924;SDS011;5001;51.674;7.868;2022-12-16T01:53:28;72.73;;;34.40;;
9924;SDS011;5001;51.674;7.868;2022-12-16T01:55:56;40.67;;;24.60;;
9924;SDS011;5001;51.674;7.868;2022-12-16T01:58:26;40.53;;;23.97;;
9924;SDS011;5001;51.674;7.868;2022-12-16T02:00:58;41.20;;;23.70;;
9924;SDS011;5001;51.674;7.868;2022-12-16T02:03:27;42.23;;;23.23;;
9924;SDS011;5001;51.674;7.868;2022-12-16T02:05:59;38.07;;;20.73;;
9924;SDS011;5001;51.674;7.868;2022-12-16T02:08:28;42.97;;;22.93;;
9924;SDS011;5001;51.674;7.868;2022-12-16T02:14:49;37.33;;;21.47;;
9924;SDS011;5001;51.674;7.868;2022-12-16T02:16:54;44.63;;;23.60;;
9924;SDS011;5001;51.674;7.868;2022-12-16T02:44:07;44.93;;;24.63;;
9924;SDS011;5001;51.674;7.868;2022-12-16T02:46:40;76.07;;;32.77;;
9924;SDS011;5001;51.674;7.868;2022-12-16T02:49:40;71.87;;;33.07;;
9924;SDS011;5001;51.674;7.868;2022-12-16T02:51:58;53.70;;;26.43;;
9924;SDS011;5001;51.674;7.868;2022-12-16T02:54:27;46.73;;;25.20;;
9924;SDS011;5001;51.674;7.868;2022-12-16T02:57:07;46.97;;;24.00;;
9924;SDS011;5001;51.674;7.868;2022-12-16T03:02:29;40.13;;;22.73;;
9924;SDS011;5001;51.674;7.868;2022-12-16T03:08:03;38.00;;;21.10;;
9924;SDS011;5001;51.674;7.868;2022-12-16T03:10:37;37.83;;;21.37;;
9924;SDS011;5001;51.674;7.868;2022-12-16T03:13:09;39.20;;;21.57;;
9924;SDS011;5001;51.674;7.868;2022-12-16T03:15:37;43.70;;;21.00;;
9924;SDS011;5001;51.674;7.868;2022-12-16T03:18:05;38.60;;;21.30;;
9924;SDS011;5001;51.674;7.868;2022-12-16T03:20:36;40.97;;;21.93;;
9924;SDS011;5001;51.674;7.868;2022-12-16T03:23:12;38.30;;;21.77;;
9924;SDS011;5001;51.674;7.868;2022-12-16T03:25:46;37.17;;;21.33;;
9924;SDS011;5001;51.674;7.868;2022-12-16T03:28:27;38.73;;;21.33;;
9924;SDS011;5001;51.674;7.868;2022-12-16T03:31:22;41.73;;;20.77;;
9924;SDS011;5001;51.674;7.868;2022-12-16T03:33:56;35.37;;;19.67;;
9924;SDS011;5001;51.674;7.868;2022-12-16T03:36:32;39.13;;;20.30;;
9924;SDS011;5001;51.674;7.868;2022-12-16T03:39:02;37.83;;;20.83;;
9924;SDS011;5001;51.674;7.868;2022-12-16T03:41:31;37.80;;;20.50;;
9924;SDS011;5001;51.674;7.868;2022-12-16T03:44:00;37.57;;;19.43;;
9924;SDS011;5001;51.674;7.868;2022-12-16T03:46:27;37.03;;;20.80;;
9924;SDS011;5001;51.674;7.868;2022-12-16T03:48:54;36.67;;;20.10;;
9924;SDS011;5001;51.674;7.868;2022-12-16T03:51:21;37.73;;;22.23;;
9924;SDS011;5001;51.674;7.868;2022-12-16T03:53:48;32.77;;;21.17;;
9924;SDS011;5001;51.674;7.868;2022-12-16T03:56:15;32.27;;;19.87;;
9924;SDS011;5001;51.674;7.868;2022-12-16T03:58:42;41.43;;;20.03;;
9924;SDS011;5001;51.674;7.868;2022-12-16T04:01:09;42.80;;;20.23;;
9924;SDS011;5001;51.674;7.868;2022-12-16T04:03:36;38.40;;;21.10;;
9924;SDS011;5001;51.674;7.868;2022-12-16T04:06:04;33.53;;;19.70;;
9924;SDS011;5001;51.674;7.868;2022-12-16T04:08:31;39.73;;;21.17;;
9924;SDS011;5001;51.674;7.868;2022-12-16T04:10:58;38.23;;;21.40;;
9924;SDS011;5001;51.674;7.868;2022-12-16T04:13:43;34.97;;;19.70;;
9924;SDS011;5001;51.674;7.868;2022-12-16T04:16:42;37.03;;;19.47;;
9924;SDS011;5001;51.674;7.868;2022-12-16T04:19:30;30.53;;;18.17;;
9924;SDS011;5001;51.674;7.868;2022-12-16T04:22:24;31.23;;;17.53;;
9924;SDS011;5001;51.674;7.868;2022-12-16T04:25:14;31.33;;;17.77;;
9924;SDS011;5001;51.674;7.868;2022-12-16T04:27:43;41.00;;;19.30;;
9924;SDS011;5001;51.674;7.868;2022-12-16T04:30:13;33.80;;;19.60;;
9924;SDS011;5001;51.674;7.868;2022-12-16T04:32:48;32.00;;;19.10;;
9924;SDS011;5001;51.674;7.868;2022-12-16T04:35:40;37.83;;;19.47;;
9924;SDS011;5001;51.674;7.868;2022-12-16T04:38:26;32.70;;;18.27;;
9924;SDS011;5001;51.674;7.868;2022-12-16T04:41:12;37.97;;;20.17;;
9924;SDS011;5001;51.674;7.868;2022-12-16T04:43:58;32.90;;;19.33;;
9924;SDS011;5001;51.674;7.868;2022-12-16T04:46:44;34.70;;;18.60;;
9924;SDS011;5001;51.674;7.868;2022-12-16T04:49:29;36.00;;;17.67;;
9924;SDS011;5001;51.674;7.868;2022-12-16T04:52:16;30.10;;;18.33;;
9924;SDS011;5001;51.674;7.868;2022-12-16T04:55:01;46.97;;;20.63;;
9924;SDS011;5001;51.674;7.868;2022-12-16T04:57:54;34.43;;;18.93;;
9924;SDS011;5001;51.674;7.868;2022-12-16T05:00:42;33.87;;;18.67;;
9924;SDS011;5001;51.674;7.868;2022-12-16T05:03:29;36.07;;;18.90;;
9924;SDS011;5001;51.674;7.868;2022-12-16T05:06:15;33.97;;;19.27;;
9924;SDS011;5001;51.674;7.868;2022-12-16T05:09:00;30.27;;;18.53;;
9924;SDS011;5001;51.674;7.868;2022-12-16T05:11:47;35.67;;;19.07;;
9924;SDS011;5001;51.674;7.868;2022-12-16T05:14:33;30.23;;;18.57;;
9924;SDS011;5001;51.674;7.868;2022-12-16T05:17:18;35.40;;;19.07;;
9924;SDS011;5001;51.674;7.868;2022-12-16T05:20:05;33.27;;;19.17;;
9924;SDS011;5001;51.674;7.868;2022-12-16T05:22:53;38.57;;;21.07;;
9924;SDS011;5001;51.674;7.868;2022-12-16T05:25:40;37.07;;;21.07;;
9924;SDS011;5001;51.674;7.868;2022-12-16T05:28:26;41.37;;;21.57;;
9924;SDS011;5001;51.674;7.868;2022-12-16T05:31:11;38.03;;;21.83;;
9924;SDS011;5001;51.674;7.868;2022-12-16T05:33:57;37.30;;;21.50;;
9924;SDS011;5001;51.674;7.868;2022-12-16T05:36:43;40.50;;;21.37;;
9924;SDS011;5001;51.674;7.868;2022-12-16T05:39:28;38.57;;;22.30;;
9924;SDS011;5001;51.674;7.868;2022-12-16T05:42:14;40.13;;;21.53;;
9924;SDS011;5001;51.674;7.868;2022-12-16T05:44:59;40.60;;;21.57;;
9924;SDS011;5001;51.674;7.868;2022-12-16T05:47:46;39.10;;;21.10;;
9924;SDS011;5001;51.674;7.868;2022-12-16T05:50:33;33.33;;;21.30;;
9924;SDS011;5001;51.674;7.868;2022-12-16T05:53:20;41.03;;;22.03;;
9924;SDS011;5001;51.674;7.868;2022-12-16T05:56:06;37.70;;;23.20;;
9924;SDS011;5001;51.674;7.868;2022-12-16T05:58:52;38.00;;;22.60;;
9924;SDS011;5001;51.674;7.868;2022-12-16T06:01:37;39.53;;;22.57;;
9924;SDS011;5001;51.674;7.868;2022-12-16T06:04:23;43.07;;;23.77;;
9924;SDS011;5001;51.674;7.868;2022-12-16T06:07:08;41.37;;;21.53;;
9924;SDS011;5001;51.674;7.868;2022-12-16T06:09:54;39.13;;;21.80;;
9924;SDS011;5001;51.674;7.868;2022-12-16T06:12:39;39.47;;;21.50;;
9924;SDS011;5001;51.674;7.868;2022-12-16T06:15:25;40.43;;;23.23;;
9924;SDS011;5001;51.674;7.868;2022-12-16T06:18:15;44.80;;;25.27;;
9924;SDS011;5001;51.674;7.868;2022-12-16T06:21:00;51.40;;;26.80;;
9924;SDS011;5001;51.674;7.868;2022-12-16T06:23:46;39.57;;;21.80;;
9924;SDS011;5001;51.674;7.868;2022-12-16T06:26:31;43.20;;;24.97;;
9924;SDS011;5001;51.674;7.868;2022-12-16T06:29:16;43.10;;;24.27;;
9924;SDS011;5001;51.674;7.868;2022-12-16T06:32:02;47.83;;;23.33;;
9924;SDS011;5001;51.674;7.868;2022-12-16T06:34:47;48.23;;;26.50;;
9924;SDS011;5001;51.674;7.868;2022-12-16T06:37:33;50.27;;;26.27;;
9924;SDS011;5001;51.674;7.868;2022-12-16T06:40:38;46.00;;;25.30;;
9924;SDS011;5001;51.674;7.868;2022-12-16T06:43:23;55.20;;;25.17;;
9924;SDS011;5001;51.674;7.868;2022-12-16T06:46:09;75.83;;;45.03;;
9924;SDS011;5001;51.674;7.868;2022-12-16T06:48:54;75.10;;;44.47;;
9924;SDS011;5001;51.674;7.868;2022-12-16T06:51:40;46.30;;;28.87;;
9924;SDS011;5001;51.674;7.868;2022-12-16T06:54:25;42.00;;;26.57;;
9924;SDS011;5001;51.674;7.868;2022-12-16T06:57:11;34.23;;;20.67;;
9924;SDS011;5001;51.674;7.868;2022-12-16T06:59:56;42.07;;;19.83;;
9924;SDS011;5001;51.674;7.868;2022-12-16T07:02:41;36.23;;;20.50;;
9924;SDS011;5001;51.674;7.868;2022-12-16T07:05:27;41.93;;;23.00;;
9924;SDS011;5001;51.674;7.868;2022-12-16T07:08:12;42.37;;;23.13;;
9924;SDS011;5001;51.674;7.868;2022-12-16T07:10:58;38.47;;;22.07;;
9924;SDS011;5001;51.674;7.868;2022-12-16T07:13:43;41.57;;;23.27;;
9924;SDS011;5001;51.674;7.868;2022-12-16T07:16:29;48.13;;;25.13;;
9924;SDS011;5001;51.674;7.868;2022-12-16T07:19:15;45.60;;;22.80;;
9924;SDS011;5001;51.674;7.868;2022-12-16T07:22:00;41.50;;;22.77;;
9924;SDS011;5001;51.674;7.868;2022-12-16T07:24:46;63.47;;;27.13;;
9924;SDS011;5001;51.674;7.868;2022-12-16T07:27:31;45.00;;;22.60;;
9924;SDS011;5001;51.674;7.868;2022-12-16T07:30:17;41.20;;;21.33;;
9924;SDS011;5001;51.674;7.868;2022-12-16T07:33:02;37.43;;;21.30;;
9924;SDS011;5001;51.674;7.868;2022-12-16T07:35:48;39.80;;;19.90;;
9924;SDS011;5001;51.674;7.868;2022-12-16T07:38:33;39.27;;;20.70;;
9924;SDS011;5001;51.674;7.868;2022-12-16T07:41:18;36.37;;;19.73;;
9924;SDS011;5001;51.674;7.868;2022-12-16T07:44:04;37.23;;;19.97;;
9924;SDS011;5001;51.674;7.868;2022-12-16T07:46:49;36.23;;;20.07;;
9924;SDS011;5001;51.674;7.868;2022-12-16T07:49:35;35.60;;;20.47;;
9924;SDS011;5001;51.674;7.868;2022-12-16T07:52:21;38.10;;;20.23;;
9924;SDS011;5001;51.674;7.868;2022-12-16T07:55:07;38.50;;;21.17;;
9924;SDS011;5001;51.674;7.868;2022-12-16T07:57:53;39.83;;;23.10;;
9924;SDS011;5001;51.674;7.868;2022-12-16T08:00:38;35.93;;;20.33;;
9924;SDS011;5001;51.674;7.868;2022-12-16T08:03:24;42.77;;;19.43;;
9924;SDS011;5001;51.674;7.868;2022-12-16T08:06:09;39.07;;;20.40;;
9924;SDS011;5001;51.674;7.868;2022-12-16T08:08:55;32.10;;;20.10;;
9924;SDS011;5001;51.674;7.868;2022-12-16T08:11:51;38.27;;;20.27;;
9924;SDS011;5001;51.674;7.868;2022-12-16T08:14:36;39.07;;;19.10;;
9924;SDS011;5001;51.674;7.868;2022-12-16T08:17:22;34.87;;;19.13;;
9924;SDS011;5001;51.674;7.868;2022-12-16T08:20:07;33.63;;;19.83;;
9924;SDS011;5001;51.674;7.868;2022-12-16T08:22:53;33.87;;;19.00;;
9924;SDS011;5001;51.674;7.868;2022-12-16T08:25:38;33.97;;;19.10;;
9924;SDS011;5001;51.674;7.868;2022-12-16T08:28:24;31.60;;;18.50;;
9924;SDS011;5001;51.674;7.868;2022-12-16T08:31:09;33.67;;;19.17;;
9924;SDS011;5001;51.674;7.868;2022-12-16T08:33:55;33.90;;;18.97;;
9924;SDS011;5001;51.674;7.868;2022-12-16T08:36:40;31.70;;;18.17;;
9924;SDS011;5001;51.674;7.868;2022-12-16T08:39:26;33.33;;;19.03;;
9924;SDS011;5001;51.674;7.868;2022-12-16T08:42:31;25.90;;;16.13;;
9924;SDS011;5001;51.674;7.868;2022-12-16T08:45:17;25.23;;;16.47;;
9924;SDS011;5001;51.674;7.868;2022-12-16T08:48:02;28.40;;;15.93;;
9924;SDS011;5001;51.674;7.868;2022-12-16T08:50:48;27.13;;;16.70;;
9924;SDS011;5001;51.674;7.868;2022-12-16T08:53:33;29.40;;;17.33;;
9924;SDS011;5001;51.674;7.868;2022-12-16T08:56:19;28.47;;;16.63;;
9924;SDS011;5001;51.674;7.868;2022-12-16T08:59:05;33.70;;;17.03;;
9924;SDS011;5001;51.674;7.868;2022-12-16T09:01:50;32.37;;;18.27;;
9924;SDS011;5001;51.674;7.868;2022-12-16T09:04:36;32.97;;;18.33;;
9924;SDS011;5001;51.674;7.868;2022-12-16T09:07:24;31.03;;;18.90;;
9924;SDS011;5001;51.674;7.868;2022-12-16T09:10:10;42.80;;;19.67;;
9924;SDS011;5001;51.674;7.868;2022-12-16T09:13:05;33.87;;;18.47;;
9924;SDS011;5001;51.674;7.868;2022-12-16T09:15:56;31.90;;;19.40;;
9924;SDS011;5001;51.674;7.868;2022-12-16T09:18:45;31.83;;;20.17;;
9924;SDS011;5001;51.674;7.868;2022-12-16T09:21:31;29.40;;;17.23;;
9924;SDS011;5001;51.674;7.868;2022-12-16T09:24:17;23.67;;;14.07;;
9924;SDS011;5001;51.674;7.868;2022-12-16T09:27:02;22.17;;;14.50;;
9924;SDS011;5001;51.674;7.868;2022-12-16T09:29:48;20.77;;;13.90;;
9924;SDS011;5001;51.674;7.868;2022-12-16T09:32:34;20.23;;;14.00;;
9924;SDS011;5001;51.674;7.868;2022-12-16T09:35:19;22.80;;;13.77;;
9924;SDS011;5001;51.674;7.868;2022-12-16T09:38:05;24.33;;;13.93;;
9924;SDS011;5001;51.674;7.868;2022-12-16T09:40:50;21.27;;;14.03;;
9924;SDS011;5001;51.674;7.868;2022-12-16T09:50:20;23.25;;;15.35;;
9924;SDS011;5001;51.674;7.868;2022-12-16T09:53:12;19.80;;;15.18;;
9924;SDS011;5001;51.674;7.868;2022-12-16T09:56:01;22.33;;;17.02;;
9924;SDS011;5001;51.674;7.868;2022-12-16T09:58:57;21.73;;;14.85;;
9924;SDS011;5001;51.674;7.868;2022-12-16T10:01:45;24.63;;;15.73;;
9924;SDS011;5001;51.674;7.868;2022-12-16T10:04:31;21.52;;;15.10;;
9924;SDS011;5001;51.674;7.868;2022-12-16T10:07:20;19.30;;;15.13;;
9924;SDS011;5001;51.674;7.868;2022-12-16T10:19:25;20.85;;;16.38;;
9924;SDS011;5001;51.674;7.868;2022-12-16T10:28:17;18.05;;;13.75;;
9924;SDS011;5001;51.674;7.868;2022-12-16T10:31:11;18.88;;;13.40;;
9924;SDS011;5001;51.674;7.868;2022-12-16T10:33:59;18.83;;;13.32;;
9924;SDS011;5001;51.674;7.868;2022-12-16T10:36:48;17.55;;;13.13;;
9924;SDS011;5001;51.674;7.868;2022-12-16T10:39:42;20.98;;;14.13;;
9924;SDS011;5001;51.674;7.868;2022-12-16T10:42:36;24.95;;;18.08;;
9924;SDS011;5001;51.674;7.868;2022-12-16T10:45:37;23.05;;;14.60;;
9924;SDS011;5001;51.674;7.868;2022-12-16T10:48:29;21.10;;;13.88;;
9924;SDS011;5001;51.674;7.868;2022-12-16T10:51:23;24.30;;;16.45;;
9924;SDS011;5001;51.674;7.868;2022-12-16T11:00:15;24.50;;;16.67;;
9924;SDS011;5001;51.674;7.868;2022-12-16T11:03:21;29.83;;;17.38;;
9924;SDS011;5001;51.674;7.868;2022-12-16T11:06:10;21.33;;;17.20;;
9924;SDS011;5001;51.674;7.868;2022-12-16T11:12:20;21.88;;;15.13;;
9924;SDS011;5001;51.674;7.868;2022-12-16T11:15:16;24.23;;;17.85;;
9924;SDS011;5001;51.674;7.868;2022-12-16T11:18:14;26.67;;;17.53;;
9924;SDS011;5001;51.674;7.868;2022-12-16T11:24:11;19.10;;;14.67;;
9924;SDS011;5001;51.674;7.868;2022-12-16T11:27:03;20.63;;;14.60;;
9924;SDS011;5001;51.674;7.868;2022-12-16T11:36:02;17.17;;;11.60;;
9924;SDS011;5001;51.674;7.868;2022-12-16T11:38:57;17.20;;;11.43;;
9924;SDS011;5001;51.674;7.868;2022-12-16T11:41:44;15.90;;;11.37;;
9924;SDS011;5001;51.674;7.868;2022-12-16T11:47:44;13.80;;;10.43;;
9924;SDS011;5001;51.674;7.868;2022-12-16T11:50:38;19.00;;;9.98;;
9924;SDS011;5001;51.674;7.868;2022-12-16T11:53:33;17.65;;;10.82;;
9924;SDS011;5001;51.674;7.868;2022-12-16T11:56:35;14.80;;;10.83;;
9924;SDS011;5001;51.674;7.868;2022-12-16T12:02:31;11.93;;;8.63;;
9924;SDS011;5001;51.674;7.868;2022-12-16T12:05:26;14.33;;;10.07;;
9924;SDS011;5001;51.674;7.868;2022-12-16T12:08:18;21.07;;;14.37;;
9924;SDS011;5001;51.674;7.868;2022-12-16T12:17:40;15.70;;;10.50;;
9924;SDS011;5001;51.674;7.868;2022-12-16T12:20:45;18.97;;;15.27;;
9924;SDS011;5001;51.674;7.868;2022-12-16T12:26:28;17.73;;;10.73;;
9924;SDS011;5001;51.674;7.868;2022-12-16T12:29:18;14.10;;;9.77;;
9924;SDS011;5001;51.674;7.868;2022-12-16T12:38:46;13.93;;;9.50;;
9924;SDS011;5001;51.674;7.868;2022-12-16T12:48:23;16.27;;;9.77;;
9924;SDS011;5001;51.674;7.868;2022-12-16T12:51:24;15.43;;;9.70;;
9924;SDS011;5001;51.674;7.868;2022-12-16T12:54:14;15.77;;;10.43;;
9924;SDS011;5001;51.674;7.868;2022-12-16T12:57:17;15.60;;;9.87;;
9924;SDS011;5001;51.674;7.868;2022-12-16T13:03:06;17.27;;;11.57;;
9924;SDS011;5001;51.674;7.868;2022-12-16T13:06:13;17.43;;;10.10;;
9924;SDS011;5001;51.674;7.868;2022-12-16T13:08:59;14.80;;;10.87;;
9924;SDS011;5001;51.674;7.868;2022-12-16T13:12:18;17.60;;;10.50;;
9924;SDS011;5001;51.674;7.868;2022-12-16T13:14:54;15.47;;;11.27;;
9924;SDS011;5001;51.674;7.868;2022-12-16T13:18:11;18.30;;;11.50;;
9924;SDS011;5001;51.674;7.868;2022-12-16T13:21:02;23.97;;;12.50;;
9924;SDS011;5001;51.674;7.868;2022-12-16T13:27:13;23.30;;;12.33;;
9924;SDS011;5001;51.674;7.868;2022-12-16T13:30:05;19.60;;;11.93;;
9924;SDS011;5001;51.674;7.868;2022-12-16T13:36:14;20.33;;;11.93;;
9924;SDS011;5001;51.674;7.868;2022-12-16T13:39:16;19.47;;;11.90;;
9924;SDS011;5001;51.674;7.868;2022-12-16T13:42:05;21.17;;;12.83;;
9924;SDS011;5001;51.674;7.868;2022-12-16T13:45:14;15.40;;;11.33;;
9924;SDS011;5001;51.674;7.868;2022-12-16T13:48:28;19.70;;;11.43;;
9924;SDS011;5001;51.674;7.868;2022-12-16T13:54:28;18.90;;;14.07;;
9924;SDS011;5001;51.674;7.868;2022-12-16T13:57:27;17.00;;;11.83;;
9924;SDS011;5001;51.674;7.868;2022-12-16T14:00:17;15.77;;;12.17;;
9924;SDS011;5001;51.674;7.868;2022-12-16T14:03:20;25.20;;;13.63;;
9924;SDS011;5001;51.674;7.868;2022-12-16T14:06:16;23.03;;;15.07;;
9924;SDS011;5001;51.674;7.868;2022-12-16T14:09:11;18.27;;;12.63;;
9924;SDS011;5001;51.674;7.868;2022-12-16T14:12:19;73.63;;;32.20;;
9924;SDS011;5001;51.674;7.868;2022-12-16T14:18:44;49.90;;;27.40;;
9924;SDS011;5001;51.674;7.868;2022-12-16T14:21:40;28.87;;;16.17;;
9924;SDS011;5001;51.674;7.868;2022-12-16T14:24:31;20.07;;;11.77;;
9924;SDS011;5001;51.674;7.868;2022-12-16T14:27:19;17.83;;;13.03;;
9924;SDS011;5001;51.674;7.868;2022-12-16T14:33:22;20.10;;;13.97;;
9924;SDS011;5001;51.674;7.868;2022-12-16T14:36:19;21.10;;;12.03;;
9924;SDS011;5001;51.674;7.868;2022-12-16T14:39:20;17.87;;;10.40;;
9924;SDS011;5001;51.674;7.868;2022-12-16T14:42:26;17.03;;;11.07;;
9924;SDS011;5001;51.674;7.868;2022-12-16T14:45:29;17.47;;;10.93;;
9924;SDS011;5001;51.674;7.868;2022-12-16T14:48:24;20.43;;;12.17;;
9924;SDS011;5001;51.674;7.868;2022-12-16T14:54:10;37.27;;;19.57;;
9924;SDS011;5001;51.674;7.868;2022-12-16T14:57:00;21.80;;;12.13;;
9924;SDS011;5001;51.674;7.868;2022-12-16T14:59:45;20.50;;;12.20;;
9924;SDS011;5001;51.674;7.868;2022-12-16T15:02:32;19.47;;;12.00;;
9924;SDS011;5001;51.674;7.868;2022-12-16T15:05:25;18.27;;;12.07;;
9924;SDS011;5001;51.674;7.868;2022-12-16T15:08:18;18.57;;;11.37;;
9924;SDS011;5001;51.674;7.868;2022-12-16T15:11:06;20.57;;;12.07;;
9924;SDS011;5001;51.674;7.868;2022-12-16T15:13:57;63.80;;;37.13;;
9924;SDS011;5001;51.674;7.868;2022-12-16T15:16:45;39.83;;;24.20;;
9924;SDS011;5001;51.674;7.868;2022-12-16T15:19:41;32.63;;;19.23;;
9924;SDS011;5001;51.674;7.868;2022-12-16T15:22:29;32.40;;;18.60;;
9924;SDS011;5001;51.674;7.868;2022-12-16T15:25:22;24.67;;;15.70;;
9924;SDS011;5001;51.674;7.868;2022-12-16T15:28:22;31.70;;;19.27;;
9924;SDS011;5001;51.674;7.868;2022-12-16T15:31:11;29.23;;;19.70;;
9924;SDS011;5001;51.674;7.868;2022-12-16T15:37:18;24.27;;;17.03;;
9924;SDS011;5001;51.674;7.868;2022-12-16T15:43:21;22.00;;;15.90;;
9924;SDS011;5001;51.674;7.868;2022-12-16T15:46:17;28.20;;;17.43;;
9924;SDS011;5001;51.674;7.868;2022-12-16T15:49:04;51.90;;;25.30;;
9924;SDS011;5001;51.674;7.868;2022-12-16T15:51:58;43.07;;;25.97;;
9924;SDS011;5001;51.674;7.868;2022-12-16T15:54:50;51.80;;;32.47;;
9924;SDS011;5001;51.674;7.868;2022-12-16T15:57:37;47.60;;;28.27;;
9924;SDS011;5001;51.674;7.868;2022-12-16T16:00:28;45.37;;;27.27;;
9924;SDS011;5001;51.674;7.868;2022-12-16T16:03:27;48.90;;;28.40;;
9924;SDS011;5001;51.674;7.868;2022-12-16T16:06:18;50.93;;;29.77;;
9924;SDS011;5001;51.674;7.868;2022-12-16T16:09:20;46.10;;;28.33;;
9924;SDS011;5001;51.674;7.868;2022-12-16T16:12:08;46.93;;;27.00;;
9924;SDS011;5001;51.674;7.868;2022-12-16T16:14:55;46.23;;;26.67;;
9924;SDS011;5001;51.674;7.868;2022-12-16T16:17:53;42.77;;;25.80;;
9924;SDS011;5001;51.674;7.868;2022-12-16T16:20:40;46.30;;;25.53;;
9924;SDS011;5001;51.674;7.868;2022-12-16T16:23:26;38.67;;;24.37;;
9924;SDS011;5001;51.674;7.868;2022-12-16T16:26:13;40.17;;;25.90;;
9924;SDS011;5001;51.674;7.868;2022-12-16T16:29:00;44.13;;;25.80;;
9924;SDS011;5001;51.674;7.868;2022-12-16T16:31:46;39.20;;;25.57;;
9924;SDS011;5001;51.674;7.868;2022-12-16T16:34:31;49.00;;;25.43;;
9924;SDS011;5001;51.674;7.868;2022-12-16T16:37:18;45.77;;;26.43;;
9924;SDS011;5001;51.674;7.868;2022-12-16T16:40:38;41.30;;;24.70;;
9924;SDS011;5001;51.674;7.868;2022-12-16T16:43:19;38.37;;;26.10;;
9924;SDS011;5001;51.674;7.868;2022-12-16T16:49:17;47.63;;;27.33;;
9924;SDS011;5001;51.674;7.868;2022-12-16T16:52:08;37.97;;;26.27;;
9924;SDS011;5001;51.674;7.868;2022-12-16T16:54:55;47.80;;;25.60;;
9924;SDS011;5001;51.674;7.868;2022-12-16T16:57:41;50.63;;;29.90;;
9924;SDS011;5001;51.674;7.868;2022-12-16T17:00:27;45.80;;;27.73;;
9924;SDS011;5001;51.674;7.868;2022-12-16T17:03:13;41.13;;;25.17;;
9924;SDS011;5001;51.674;7.868;2022-12-16T17:05:59;45.47;;;27.27;;
9924;SDS011;5001;51.674;7.868;2022-12-16T17:08:45;42.83;;;25.93;;
9924;SDS011;5001;51.674;7.868;2022-12-16T17:11:30;52.93;;;30.30;;
9924;SDS011;5001;51.674;7.868;2022-12-16T17:14:18;54.70;;;31.90;;
9924;SDS011;5001;51.674;7.868;2022-12-16T17:17:04;54.20;;;31.07;;
9924;SDS011;5001;51.674;7.868;2022-12-16T17:19:50;59.57;;;33.30;;
9924;SDS011;5001;51.674;7.868;2022-12-16T17:22:36;46.93;;;30.00;;
9924;SDS011;5001;51.674;7.868;2022-12-16T17:25:21;56.37;;;31.47;;
9924;SDS011;5001;51.674;7.868;2022-12-16T17:28:08;56.40;;;30.67;;
9924;SDS011;5001;51.674;7.868;2022-12-16T17:30:54;57.63;;;33.47;;
9924;SDS011;5001;51.674;7.868;2022-12-16T17:33:40;59.60;;;37.27;;
9924;SDS011;5001;51.674;7.868;2022-12-16T17:36:25;58.63;;;33.83;;
9924;SDS011;5001;51.674;7.868;2022-12-16T17:39:11;50.93;;;30.37;;
9924;SDS011;5001;51.674;7.868;2022-12-16T17:41:56;53.23;;;29.93;;
9924;SDS011;5001;51.674;7.868;2022-12-16T17:44:42;52.00;;;32.57;;
9924;SDS011;5001;51.674;7.868;2022-12-16T17:47:27;60.43;;;32.23;;
9924;SDS011;5001;51.674;7.868;2022-12-16T17:50:13;54.83;;;31.27;;
9924;SDS011;5001;51.674;7.868;2022-12-16T17:52:58;56.70;;;30.13;;
9924;SDS011;5001;51.674;7.868;2022-12-16T17:55:44;52.83;;;30.10;;
9924;SDS011;5001;51.674;7.868;2022-12-16T17:58:34;53.03;;;29.83;;
9924;SDS011;5001;51.674;7.868;2022-12-16T18:01:22;55.17;;;31.90;;
9924;SDS011;5001;51.674;7.868;2022-12-16T18:04:08;52.30;;;30.53;;
9924;SDS011;5001;51.674;7.868;2022-12-16T18:06:54;50.83;;;30.07;;
9924;SDS011;5001;51.674;7.868;2022-12-16T18:09:39;62.47;;;28.83;;
9924;SDS011;5001;51.674;7.868;2022-12-16T18:12:25;49.73;;;28.77;;
9924;SDS011;5001;51.674;7.868;2022-12-16T18:15:11;51.73;;;30.80;;
9924;SDS011;5001;51.674;7.868;2022-12-16T18:17:56;54.20;;;31.80;;
9924;SDS011;5001;51.674;7.868;2022-12-16T18:20:41;52.97;;;30.40;;
9924;SDS011;5001;51.674;7.868;2022-12-16T18:23:30;59.10;;;33.33;;
9924;SDS011;5001;51.674;7.868;2022-12-16T18:26:15;41.03;;;26.57;;
9924;SDS011;5001;51.674;7.868;2022-12-16T18:29:01;38.47;;;24.37;;
9924;SDS011;5001;51.674;7.868;2022-12-16T18:31:47;45.03;;;25.43;;
9924;SDS011;5001;51.674;7.868;2022-12-16T18:34:33;43.50;;;25.40;;
9924;SDS011;5001;51.674;7.868;2022-12-16T18:37:19;44.53;;;25.43;;
9924;SDS011;5001;51.674;7.868;2022-12-16T18:40:04;45.10;;;25.63;;
9924;SDS011;5001;51.674;7.868;2022-12-16T18:42:51;41.53;;;25.33;;
9924;SDS011;5001;51.674;7.868;2022-12-16T18:45:36;38.53;;;23.67;;
9924;SDS011;5001;51.674;7.868;2022-12-16T18:48:22;39.53;;;23.93;;
9924;SDS011;5001;51.674;7.868;2022-12-16T18:51:07;38.17;;;23.87;;